Time;durP1;ratioP1;P1;durP2;ratioP2;P2;SDS_P1;SDS_P2;PMS_P1;PMS_P2;Temp;Humidity;BMP_temperature;BMP_pressure;BME280_temperature;BME280_humidity;BME280_pressure;Samples;Min_cycle;Max_cycle;Signal;HPM_P1;HPM_P2
2022/09/18 00:00:50;;;;;;;0.05;0.00;;;3.50;99.90;;;;;;20724662;28;20029;-58
2022/09/18 00:10:52;;;;;;;0.08;0.00;;;3.60;99.90;;;;;;20707583;28;20438;-58
2022/09/18 00:20:54;;;;;;;0.65;0.10;;;3.80;99.90;;;;;;20741131;28;20046;-59
2022/09/18 00:31:11;;;;;;;0.00;0.00;;;3.70;99.90;;;;;;20739460;28;20042;-54
2022/09/18 00:41:22;;;;;;;0.08;0.00;;;3.80;99.90;;;;;;20738868;28;20114;-55
2022/09/18 00:51:25;;;;;;;0.10;0.00;;;4.00;99.90;;;;;;20738718;28;20054;-57
2022/09/18 01:01:30;;;;;;;0.10;0.00;;;3.80;99.90;;;;;;20705774;28;20482;-47
2022/09/18 01:11:42;;;;;;;0.20;0.00;;;3.80;99.90;;;;;;20721364;28;20046;-45
2022/09/18 01:21:45;;;;;;;0.20;0.00;;;3.90;99.90;;;;;;20699061;28;20038;-45
2022/09/18 01:32:25;;;;;;;0.00;0.00;;;4.00;99.90;;;;;;20752788;28;20034;-56
2022/09/18 01:42:32;;;;;;;0.08;0.00;;;4.00;99.90;;;;;;20735727;28;20103;-48
2022/09/18 01:52:41;;;;;;;0.00;0.00;;;4.00;99.90;;;;;;20750691;28;20109;-47
2022/09/18 02:02:57;;;;;;;0.43;0.00;;;4.00;99.90;;;;;;20750514;28;20103;-47
2022/09/18 02:13:06;;;;;;;0.65;0.00;;;4.10;99.90;;;;;;20735433;28;20030;-45
2022/09/18 02:23:11;;;;;;;0.03;0.00;;;4.10;99.90;;;;;;20732709;28;20394;-45
2022/09/18 02:33:25;;;;;;;0.10;0.00;;;4.10;99.90;;;;;;20731445;28;20069;-45
2022/09/18 02:43:28;;;;;;;0.20;0.03;;;4.00;99.90;;;;;;20715203;28;20042;-48
2022/09/18 02:53:45;;;;;;;0.38;0.00;;;4.30;99.90;;;;;;20746494;28;20042;-44
2022/09/18 03:03:49;;;;;;;0.00;0.00;;;4.20;99.90;;;;;;20713578;28;20037;-47
2022/09/18 03:13:54;;;;;;;0.00;0.00;;;4.00;99.90;;;;;;20796451;28;20112;-45
2022/09/18 03:23:57;;;;;;;0.10;0.00;;;3.80;99.90;;;;;;20793537;28;20103;-45
2022/09/18 03:34:06;;;;;;;0.10;0.00;;;3.60;99.90;;;;;;20792508;28;20455;-44
2022/09/18 03:44:10;;;;;;;0.10;0.00;;;4.00;99.90;;;;;;20785578;28;20495;-56
2022/09/18 03:54:16;;;;;;;0.00;0.00;;;4.10;99.90;;;;;;20709497;28;20042;-47
2022/09/18 04:04:30;;;;;;;0.00;0.00;;;3.90;99.90;;;;;;20724745;28;20482;-45
2022/09/18 04:14:55;;;;;;;0.00;0.00;;;3.80;99.90;;;;;;20721281;28;20121;-45
2022/09/18 04:24:58;;;;;;;0.55;0.00;;;4.00;99.90;;;;;;20723657;28;20034;-54
2022/09/18 04:35:02;;;;;;;0.40;0.10;;;4.10;99.90;;;;;;20722780;28;20092;-56
2022/09/18 04:45:05;;;;;;;0.10;0.00;;;4.20;99.90;;;;;;20722271;28;20041;-45
2022/09/18 04:55:09;;;;;;;2.10;0.00;;;4.20;99.90;;;;;;20731433;28;20095;-47
2022/09/18 05:05:16;;;;;;;0.20;0.00;;;4.20;99.90;;;;;;20722031;28;20033;-56
2022/09/18 05:15:19;;;;;;;0.10;0.00;;;4.30;99.90;;;;;;20737588;28;20042;-45
2022/09/18 05:25:26;;;;;;;0.00;0.00;;;4.30;99.90;;;;;;20720911;28;20064;-46
2022/09/18 05:35:31;;;;;;;0.10;0.00;;;4.40;99.90;;;;;;20735966;28;20038;-56
2022/09/18 05:45:35;;;;;;;0.00;0.00;;;4.40;99.90;;;;;;20736074;28;20479;-45
2022/09/18 05:55:49;;;;;;;1.65;0.10;;;4.50;99.90;;;;;;20734584;28;20057;-56
2022/09/18 06:05:53;;;;;;;0.00;0.00;;;4.70;99.90;;;;;;20732831;28;20115;-57
2022/09/18 06:15:57;;;;;;;0.10;0.00;;;5.70;99.90;;;;;;20732831;28;20038;-57
2022/09/18 06:26:13;;;;;;;0.25;0.00;;;5.60;99.90;;;;;;20732133;28;20080;-45
2022/09/18 06:36:16;;;;;;;0.05;0.00;;;5.20;99.90;;;;;;20715266;28;20402;-47
2022/09/18 06:46:54;;;;;;;0.08;0.00;;;5.20;99.90;;;;;;20477776;28;20091;-54
2022/09/18 06:57:06;;;;;;;0.40;0.10;;;5.80;99.90;;;;;;20400849;29;20048;-47
2022/09/18 07:07:09;;;;;;;0.10;0.00;;;7.10;99.90;;;;;;20398273;29;20071;-47
2022/09/18 07:17:12;;;;;;;0.10;0.00;;;7.90;99.90;;;;;;20527650;28;20046;-46
2022/09/18 07:27:15;;;;;;;0.00;0.00;;;8.70;99.90;;;;;;20658139;28;20448;-46
2022/09/18 07:37:19;;;;;;;1.50;0.10;;;9.60;99.90;;;;;;20691593;28;20102;-46
2022/09/18 07:47:29;;;;;;;0.00;0.00;;;11.00;98.70;;;;;;20648383;28;20042;-57
2022/09/18 07:57:35;;;;;;;0.10;0.00;;;11.60;96.50;;;;;;20708862;28;20305;-45
2022/09/18 08:07:53;;;;;;;0.20;0.00;;;11.90;95.20;;;;;;20781089;28;20056;-46
2022/09/18 08:18:26;;;;;;;2.15;0.08;;;12.90;92.90;;;;;;20715815;28;20439;-47
2022/09/18 08:28:38;;;;;;;0.10;0.00;;;14.50;95.10;;;;;;20723701;28;20112;-58
2022/09/18 08:38:42;;;;;;;0.00;0.00;;;15.40;88.80;;;;;;20723419;28;20442;-58
2022/09/18 08:48:58;;;;;;;0.10;0.00;;;15.60;91.40;;;;;;20738998;28;20049;-58
2022/09/18 08:59:10;;;;;;;0.20;0.00;;;16.30;88.10;;;;;;20723630;28;20480;-58
2022/09/18 09:09:41;;;;;;;1.25;0.00;;;16.80;87.40;;;;;;20736240;28;20038;-49
2022/09/18 09:20:07;;;;;;;0.00;0.00;;;17.30;88.20;;;;;;20705905;28;20446;-47
2022/09/18 09:30:19;;;;;;;0.22;0.00;;;17.50;85.70;;;;;;20705389;28;20350;-47
2022/09/18 09:40:44;;;;;;;0.00;0.00;;;17.70;82.00;;;;;;20727140;28;20227;-46
2022/09/18 09:50:58;;;;;;;0.10;0.03;;;18.00;78.20;;;;;;20719057;28;20112;-47
2022/09/18 10:01:20;;;;;;;0.30;0.10;;;18.20;77.10;;;;;;20718379;28;20041;-47
2022/09/18 10:11:23;;;;;;;0.47;0.10;;;18.50;83.00;;;;;;20717866;28;20391;-58
2022/09/18 10:21:35;;;;;;;0.40;0.10;;;18.60;87.20;;;;;;20716984;28;20033;-46
2022/09/18 10:31:57;;;;;;;0.10;0.10;;;18.80;86.40;;;;;;20731479;28;20041;-58
2022/09/18 10:42:16;;;;;;;0.20;0.13;;;18.60;82.80;;;;;;20716297;28;20092;-59
2022/09/18 10:52:35;;;;;;;1.50;0.10;;;18.90;88.20;;;;;;20730188;28;20104;-47
2022/09/18 11:02:58;;;;;;;0.20;0.20;;;19.00;84.70;;;;;;20713937;28;20034;-49
2022/09/18 11:13:55;;;;;;;0.50;0.15;;;18.70;84.20;;;;;;20761938;28;20033;-45
2022/09/18 11:24:05;;;;;;;0.20;0.10;;;18.50;86.20;;;;;;20745167;28;20042;-47
2022/09/18 11:34:44;;;;;;;0.10;0.10;;;18.60;82.50;;;;;;20711915;28;20034;-48
2022/09/18 11:44:48;;;;;;;0.10;0.00;;;18.90;85.50;;;;;;20726753;28;20068;-48
2022/09/18 11:54:56;;;;;;;0.68;0.30;;;19.20;83.80;;;;;;20710462;28;20049;-46
2022/09/18 12:05:10;;;;;;;0.90;0.60;;;19.00;87.80;;;;;;20710282;28;20088;-46
2022/09/18 12:15:19;;;;;;;1.10;0.40;;;19.00;90.30;;;;;;20708723;28;20034;-60
2022/09/18 12:26:02;;;;;;;2.88;0.80;;;19.10;90.40;;;;;;20708249;28;20049;-46
2022/09/18 12:36:24;;;;;;;1.25;0.60;;;18.90;92.80;;;;;;20452184;28;20043;-60
2022/09/18 12:47:01;;;;;;;1.45;0.75;;;18.80;92.10;;;;;;20437239;29;20043;-61
2022/09/18 12:57:29;;;;;;;1.25;0.85;;;18.70;92.80;;;;;;20473305;29;20059;-60
2022/09/18 13:07:39;;;;;;;1.73;1.35;;;18.80;90.90;;;;;;20588147;28;20041;-47
2022/09/18 13:17:47;;;;;;;2.60;2.10;;;18.80;90.90;;;;;;20813761;28;20107;-60
2022/09/18 13:27:52;;;;;;;3.90;3.03;;;18.70;91.50;;;;;;20836030;28;20611;-48
2022/09/18 13:38:08;;;;;;;4.25;2.90;;;18.40;92.60;;;;;;20818157;28;20045;-47
2022/09/18 13:48:11;;;;;;;4.57;3.40;;;18.20;93.10;;;;;;20746140;28;20084;-48
2022/09/18 13:58:30;;;;;;;5.55;3.60;;;18.00;91.20;;;;;;20751079;28;20039;-46
2022/09/18 14:08:37;;;;;;;3.33;3.00;;;17.60;91.80;;;;;;20811663;28;20044;-59
2022/09/18 14:18:43;;;;;;;2.70;2.50;;;17.20;91.00;;;;;;20779983;28;20037;-46
2022/09/18 14:28:47;;;;;;;2.63;2.35;;;16.80;91.20;;;;;;20732963;28;20092;-46
2022/09/18 14:38:50;;;;;;;3.28;1.70;;;16.40;90.80;;;;;;20748022;28;20038;-45
2022/09/18 14:48:54;;;;;;;2.45;2.25;;;15.80;91.20;;;;;;20747324;28;20042;-46
2022/09/18 14:59:04;;;;;;;3.75;2.53;;;15.20;91.30;;;;;;20746691;28;20030;-46
2022/09/18 15:09:09;;;;;;;2.90;2.20;;;14.80;91.70;;;;;;20714127;28;20487;-46
2022/09/18 15:19:16;;;;;;;2.50;2.20;;;14.40;91.40;;;;;;20728507;28;20461;-47
2022/09/18 15:29:29;;;;;;;3.28;2.63;;;13.90;92.30;;;;;;20712342;28;20033;-47
2022/09/18 15:39:36;;;;;;;2.20;2.00;;;13.60;94.30;;;;;;20742764;28;20034;-59
2022/09/18 15:49:39;;;;;;;3.50;1.95;;;13.30;94.30;;;;;;20706940;28;20388;-46
2022/09/18 15:59:43;;;;;;;1.60;1.38;;;12.70;94.30;;;;;;20732882;28;20091;-59
2022/09/18 16:09:47;;;;;;;1.73;1.50;;;11.90;94.60;;;;;;20753320;28;20034;-47
2022/09/18 16:19:50;;;;;;;1.52;1.30;;;11.60;96.60;;;;;;20700276;28;20029;-46
2022/09/18 16:29:52;;;;;;;1.88;1.38;;;11.80;95.30;;;;;;20752361;28;20037;-59
2022/09/18 16:39:55;;;;;;;1.40;1.00;;;11.90;95.70;;;;;;20723141;28;20033;-58
2022/09/18 16:49:59;;;;;;;1.35;0.90;;;11.70;96.70;;;;;;20760948;28;20553;-47
2022/09/18 17:00:09;;;;;;;2.30;0.95;;;11.50;95.20;;;;;;20786088;28;20046;-48
2022/09/18 17:10:12;;;;;;;2.53;0.77;;;11.20;96.00;;;;;;20786827;28;20042;-58
2022/09/18 17:20:16;;;;;;;1.38;0.60;;;10.80;96.20;;;;;;20797238;28;20092;-46
2022/09/18 17:30:19;;;;;;;2.80;0.60;;;10.60;92.80;;;;;;20721749;28;20042;-59
2022/09/18 17:40:21;;;;;;;0.90;0.50;;;10.60;93.50;;;;;;20780213;28;20042;-46
2022/09/18 17:50:24;;;;;;;1.40;0.50;;;10.30;93.50;;;;;;20762239;28;20057;-57
2022/09/18 18:00:27;;;;;;;4.63;0.50;;;9.70;95.70;;;;;;20822874;28;20095;-58
2022/09/18 18:10:30;;;;;;;2.10;0.70;;;9.20;96.60;;;;;;20800503;28;20034;-62
2022/09/18 18:20:32;;;;;;;1.40;0.50;;;8.70;96.50;;;;;;20775009;28;20033;-64
2022/09/18 18:30:35;;;;;;;0.70;0.45;;;8.50;96.80;;;;;;20814318;28;20088;-64
2022/09/18 18:40:39;;;;;;;0.95;0.52;;;8.60;96.30;;;;;;20818837;28;20030;-64
2022/09/18 18:50:41;;;;;;;1.23;0.40;;;8.80;96.20;;;;;;20757226;28;20045;-63
2022/09/18 19:00:45;;;;;;;0.55;0.30;;;9.20;95.50;;;;;;20783326;28;20077;-63
2022/09/18 19:10:56;;;;;;;1.38;0.63;;;9.00;96.20;;;;;;20725939;28;20037;-63
2022/09/18 19:20:58;;;;;;;;;;;8.60;95.60;;;;;;20758432;28;20041;-62
2022/09/18 19:31:02;;;;;;;0.93;0.30;;;9.20;92.40;;;;;;20809156;28;19917;-61
2022/09/18 19:41:09;;;;;;;2.38;0.50;;;;;;;;;;20763264;28;20046;-59
2022/09/18 19:51:12;;;;;;;0.77;0.30;;;8.50;96.50;;;;;;20773590;28;20045;-62
2022/09/18 20:01:16;;;;;;;1.17;0.30;;;8.50;95.90;;;;;;20762452;28;20033;-59
2022/09/18 20:11:19;;;;;;;0.80;0.40;;;8.70;93.20;;;;;;20814094;28;20034;-59
2022/09/18 20:21:22;;;;;;;1.80;0.50;;;9.40;91.20;;;;;;20778952;28;20134;-63
2022/09/18 20:31:25;;;;;;;2.97;0.50;;;9.80;92.20;;;;;;20821149;28;20037;-60
2022/09/18 20:41:29;;;;;;;3.83;0.43;;;8.90;95.00;;;;;;20788138;28;20034;-59
2022/09/18 20:51:36;;;;;;;1.58;0.50;;;8.10;95.40;;;;;;20757881;28;20406;-60
2022/09/18 21:01:40;;;;;;;2.38;0.30;;;7.90;95.40;;;;;;20756546;28;20057;-60
2022/09/18 21:11:43;;;;;;;0.82;0.40;;;7.90;96.90;;;;;;20814733;28;20033;-60
2022/09/18 21:21:47;;;;;;;0.82;0.40;;;7.70;96.80;;;;;;20802873;28;20045;-60
2022/09/18 21:31:55;;;;;;;1.40;0.30;;;7.30;97.40;;;;;;20787074;28;20041;-60
2022/09/18 21:41:59;;;;;;;1.00;0.30;;;6.90;98.80;;;;;;20797471;28;20073;-62
2022/09/18 21:52:05;;;;;;;1.05;0.45;;;6.90;98.70;;;;;;20791462;28;20423;-61
2022/09/18 22:02:09;;;;;;;1.42;0.40;;;6.80;98.30;;;;;;20801058;28;20033;-58
2022/09/18 22:12:11;;;;;;;1.60;0.40;;;7.30;95.90;;;;;;20832381;28;20033;-58
2022/09/18 22:22:14;;;;;;;1.27;0.40;;;7.50;97.50;;;;;;20831779;28;20034;-59
2022/09/18 22:32:16;;;;;;;1.85;0.80;;;7.90;95.10;;;;;;20831450;28;20552;-61
2022/09/18 22:42:18;;;;;;;0.82;0.40;;;8.50;92.20;;;;;;20807759;28;20085;-61
2022/09/18 22:52:21;;;;;;;2.80;0.60;;;10.00;90.70;;;;;;20789754;28;20054;-61
2022/09/18 23:02:24;;;;;;;0.98;0.47;;;9.80;90.10;;;;;;20828879;28;20375;-60
2022/09/18 23:12:29;;;;;;;2.00;0.60;;;8.80;93.60;;;;;;20742298;28;20120;-60
2022/09/18 23:22:31;;;;;;;0.93;0.40;;;9.00;91.90;;;;;;20771655;28;20033;-60
2022/09/18 23:32:34;;;;;;;1.10;0.60;;;8.50;93.60;;;;;;20793442;28;20064;-59
2022/09/18 23:42:36;;;;;;;2.10;0.70;;;8.20;93.70;;;;;;20800996;28;20092;-59
2022/09/18 23:52:38;;;;;;;1.20;0.70;;;8.00;95.50;;;;;;20786402;28;20089;-59
